createdAt,value
2017-09-13T00:00:59.031Z,13.31
2017-09-13T00:01:58.943Z,13.28
2017-09-13T00:02:58.713Z,13.23
2017-09-13T00:03:58.939Z,13.28
2017-09-13T00:04:58.944Z,13.31
2017-09-13T00:05:59.036Z,13.23
2017-09-13T00:06:58.659Z,13.18
2017-09-13T00:07:58.419Z,13.15
2017-09-13T00:08:58.615Z,13.25
2017-09-13T00:09:58.710Z,13.19
2017-09-13T00:10:58.929Z,13.23
2017-09-13T00:11:58.622Z,13.15
2017-09-13T00:12:58.745Z,13.13
2017-09-13T00:13:58.820Z,13.22
2017-09-13T00:14:59.048Z,13.15
2017-09-13T00:15:58.908Z,13.12
2017-09-13T00:16:58.926Z,13.13
2017-09-13T00:17:58.600Z,13.15
2017-09-13T00:18:59.169Z,13.18
2017-09-13T00:19:58.393Z,13.15
2017-09-13T00:20:58.911Z,13.04
2017-09-13T00:21:58.582Z,13.05
2017-09-13T00:22:58.892Z,13.11
2017-09-13T00:23:58.896Z,13.05
2017-09-13T00:24:58.896Z,13.03
2017-09-13T00:25:58.892Z,13.11
2017-09-13T00:26:58.894Z,13.01
2017-09-13T00:27:58.577Z,13.11
2017-09-13T00:28:58.591Z,13.13
2017-09-13T00:29:58.269Z,13.09
2017-09-13T00:30:58.577Z,13.16
2017-09-13T00:31:58.889Z,13.01
2017-09-13T00:32:58.876Z,13.01
2017-09-13T00:33:58.567Z,12.98
2017-09-13T00:34:58.579Z,13.05
2017-09-13T00:35:58.873Z,13.05
2017-09-13T00:36:58.558Z,13.03
2017-09-13T00:37:58.866Z,13.11
2017-09-13T00:38:58.900Z,13.05
2017-09-13T00:39:58.865Z,13.04
2017-09-13T00:40:58.558Z,13.04
2017-09-13T00:41:58.242Z,12.94
2017-09-13T00:42:58.234Z,12.9
2017-09-13T00:43:58.854Z,12.9
2017-09-13T00:44:59.906Z,12.91
2017-09-13T00:45:58.850Z,12.86
2017-09-13T00:46:58.851Z,12.79
2017-09-13T00:47:58.537Z,12.83
2017-09-13T00:48:58.535Z,12.87
2017-09-13T00:49:58.533Z,12.83
2017-09-13T00:50:58.843Z,12.78
2017-09-13T00:51:58.530Z,12.79
2017-09-13T00:52:58.842Z,12.78
2017-09-13T00:53:58.541Z,12.8
2017-09-13T00:54:58.524Z,12.86
2017-09-13T00:55:58.523Z,12.8
2017-09-13T00:56:58.519Z,12.78
2017-09-13T00:57:58.829Z,12.83
2017-09-13T00:58:58.827Z,12.83
2017-09-13T00:59:58.830Z,12.8
2017-09-13T01:00:58.511Z,12.85
2017-09-13T01:01:58.816Z,12.85
2017-09-13T01:02:58.524Z,12.86
2017-09-13T01:03:58.196Z,12.95
2017-09-13T01:04:58.512Z,12.93
2017-09-13T01:05:58.808Z,12.93
2017-09-13T01:06:58.525Z,12.9
2017-09-13T01:07:58.998Z,12.94
2017-09-13T01:08:58.493Z,12.79
2017-09-13T01:09:58.493Z,12.9
2017-09-13T01:10:58.805Z,12.97
2017-09-13T01:11:58.535Z,12.93
2017-09-13T01:12:58.483Z,12.98
2017-09-13T01:13:58.489Z,12.93
2017-09-13T01:14:58.790Z,12.8
2017-09-13T01:15:58.509Z,12.91
2017-09-13T01:16:58.785Z,12.79
2017-09-13T01:17:58.781Z,12.91
2017-09-13T01:18:58.468Z,12.85
2017-09-13T01:19:58.794Z,12.87
2017-09-13T01:20:58.793Z,12.79
2017-09-13T01:21:58.778Z,12.8
2017-09-13T01:22:58.769Z,12.76
2017-09-13T01:23:58.768Z,12.72
2017-09-13T01:24:58.781Z,12.8
2017-09-13T01:25:58.766Z,12.68
2017-09-13T01:26:58.779Z,12.72
2017-09-13T01:27:58.761Z,12.73
2017-09-13T01:28:58.448Z,12.75
2017-09-13T01:29:58.762Z,12.65
2017-09-13T01:30:58.754Z,12.7
2017-09-13T01:31:58.753Z,12.72
2017-09-13T01:32:58.747Z,12.62
2017-09-13T01:33:58.747Z,12.65
2017-09-13T01:34:58.448Z,12.67
2017-09-13T01:35:58.746Z,12.7
2017-09-13T01:36:58.443Z,12.76
2017-09-13T01:37:58.739Z,12.75
2017-09-13T01:38:58.739Z,12.72
2017-09-13T01:39:58.433Z,12.8
2017-09-13T01:40:58.431Z,12.65
2017-09-13T01:41:58.727Z,12.72
2017-09-13T01:42:58.728Z,12.76
2017-09-13T01:43:58.757Z,12.75
2017-09-13T01:44:58.725Z,12.82
2017-09-13T01:45:58.717Z,12.76
2017-09-13T01:46:58.409Z,12.72
2017-09-13T01:47:58.407Z,12.7
2017-09-13T01:48:58.413Z,12.7
2017-09-13T01:49:58.411Z,12.75
2017-09-13T01:50:58.410Z,12.76
2017-09-13T01:51:58.712Z,12.78
2017-09-13T01:52:58.400Z,12.73
2017-09-13T01:53:58.393Z,12.68
2017-09-13T01:54:58.089Z,12.8
2017-09-13T01:55:58.391Z,12.8
2017-09-13T01:56:58.698Z,12.82
2017-09-13T01:57:58.385Z,12.79
2017-09-13T01:58:58.696Z,12.8
2017-09-13T01:59:58.396Z,12.68
2017-09-13T02:00:58.385Z,12.68
2017-09-13T02:01:58.394Z,12.79
2017-09-13T02:02:58.691Z,12.78
2017-09-13T02:03:58.685Z,12.65
2017-09-13T02:04:58.375Z,12.68
2017-09-13T02:05:58.056Z,12.64
2017-09-13T02:06:58.367Z,12.72
2017-09-13T02:07:58.364Z,12.73
2017-09-13T02:08:58.364Z,12.73
2017-09-13T02:09:59.884Z,12.75
2017-09-13T02:10:58.363Z,12.72
2017-09-13T02:11:58.369Z,12.76
2017-09-13T02:12:58.353Z,12.72
2017-09-13T02:13:58.349Z,12.68
2017-09-13T02:14:58.350Z,12.67
2017-09-13T02:15:58.904Z,12.7
2017-09-13T02:16:58.341Z,12.68
2017-09-13T02:17:58.341Z,12.64
2017-09-13T02:18:58.342Z,12.7
2017-09-13T02:19:58.342Z,12.65
2017-09-13T02:20:58.339Z,12.67
2017-09-13T02:21:58.334Z,12.62
2017-09-13T02:22:58.017Z,12.6
2017-09-13T02:23:58.637Z,12.61
2017-09-13T02:24:58.325Z,12.58
2017-09-13T02:25:58.010Z,12.54
2017-09-13T02:26:58.631Z,12.67
2017-09-13T02:27:58.626Z,12.68
2017-09-13T02:28:58.324Z,12.73
2017-09-13T02:29:58.008Z,12.72
2017-09-13T02:30:58.317Z,12.65
2017-09-13T02:31:58.306Z,12.73
2017-09-13T02:32:58.624Z,12.6
2017-09-13T02:33:58.306Z,12.65
2017-09-13T02:34:58.312Z,12.68
2017-09-13T02:35:58.610Z,12.58
2017-09-13T02:36:58.296Z,12.64
2017-09-13T02:37:58.602Z,12.64
2017-09-13T02:38:58.295Z,12.62
2017-09-13T02:39:58.599Z,12.72
2017-09-13T02:40:57.981Z,12.67
2017-09-13T02:41:58.287Z,12.72
2017-09-13T02:42:58.284Z,12.73
2017-09-13T02:43:58.283Z,12.65
2017-09-13T02:44:58.589Z,12.7
2017-09-13T02:45:58.780Z,12.78
2017-09-13T02:46:58.279Z,12.62
2017-09-13T02:47:58.589Z,12.73
2017-09-13T02:48:58.283Z,12.65
2017-09-13T02:49:58.595Z,12.6
2017-09-13T02:50:58.587Z,12.62
2017-09-13T02:51:58.592Z,12.65
2017-09-13T02:52:58.263Z,12.55
2017-09-13T02:53:58.258Z,12.53
2017-09-13T02:54:58.578Z,12.49
2017-09-13T02:55:58.561Z,12.46
2017-09-13T02:56:58.263Z,12.53
2017-09-13T02:57:58.557Z,12.5
2017-09-13T02:58:58.253Z,12.47
2017-09-13T02:59:58.569Z,12.53
2017-09-13T03:00:58.561Z,12.5
2017-09-13T03:01:58.557Z,12.43
2017-09-13T03:02:58.566Z,12.46
2017-09-13T03:03:58.235Z,12.32
2017-09-13T03:04:58.547Z,12.15
2017-09-13T03:05:58.695Z,12.25
2017-09-13T03:06:58.547Z,12.12
2017-09-13T03:07:58.232Z,12.12
2017-09-13T03:08:57.914Z,11.94
2017-09-13T03:09:58.232Z,12
2017-09-13T03:10:58.546Z,12
2017-09-13T03:11:58.236Z,11.97
2017-09-13T03:12:58.537Z,11.87
2017-09-13T03:13:58.522Z,11.86
2017-09-13T03:14:58.211Z,11.81
2017-09-13T03:15:59.256Z,11.87
2017-09-13T03:16:58.516Z,11.91
2017-09-13T03:17:58.202Z,12.07
2017-09-13T03:18:58.202Z,12.03
2017-09-13T03:19:58.196Z,12.06
2017-09-13T03:20:58.498Z,12.13
2017-09-13T03:21:58.503Z,12.1
2017-09-13T03:22:57.876Z,12.18
2017-09-13T03:23:58.182Z,12.13
2017-09-13T03:24:58.497Z,12.07
2017-09-13T03:25:58.180Z,12.04
2017-09-13T03:26:58.484Z,12.06
2017-09-13T03:27:58.488Z,12.09
2017-09-13T03:28:58.490Z,12.09
2017-09-13T03:29:58.172Z,11.95
2017-09-13T03:30:58.488Z,12
2017-09-13T03:31:58.476Z,12.06
2017-09-13T03:32:58.471Z,12.03
2017-09-13T03:33:58.156Z,12.15
2017-09-13T03:34:58.464Z,12.06
2017-09-13T03:35:58.467Z,12.03
2017-09-13T03:36:58.146Z,12.13
2017-09-13T03:37:58.145Z,12.12
2017-09-13T03:38:58.454Z,11.95
2017-09-13T03:39:58.144Z,12.04
2017-09-13T03:40:58.446Z,12
2017-09-13T03:41:58.133Z,11.91
2017-09-13T03:42:58.443Z,12
2017-09-13T03:43:57.831Z,12
2017-09-13T03:44:57.825Z,12.09
2017-09-13T03:45:58.128Z,12.12
2017-09-13T03:46:58.439Z,12.07
2017-09-13T03:47:58.437Z,12.17
2017-09-13T03:48:58.440Z,12.17
2017-09-13T03:49:58.424Z,12.2
2017-09-13T03:50:58.111Z,12.2
2017-09-13T03:51:58.414Z,12.18
2017-09-13T03:52:58.246Z,12.1
2017-09-13T03:53:58.418Z,12.07
2017-09-13T03:54:58.103Z,12.2
2017-09-13T03:55:58.413Z,12.04
2017-09-13T03:56:58.403Z,12.06
2017-09-13T03:57:58.092Z,12.09
2017-09-13T03:58:58.405Z,11.94
2017-09-13T03:59:58.409Z,11.86
2017-09-13T04:00:58.398Z,11.88
2017-09-13T04:01:58.391Z,11.88
2017-09-13T04:02:58.081Z,12
2017-09-13T04:03:58.072Z,11.97
2017-09-13T04:04:58.384Z,12.03
2017-09-13T04:05:58.070Z,11.91
2017-09-13T04:06:58.377Z,11.83
2017-09-13T04:07:58.380Z,11.88
2017-09-13T04:08:58.066Z,11.9
2017-09-13T04:09:58.065Z,11.87
2017-09-13T04:10:58.058Z,11.94
2017-09-13T04:11:58.056Z,11.91
2017-09-13T04:12:58.051Z,11.87
2017-09-13T04:13:58.358Z,12
2017-09-13T04:14:58.062Z,12.04
2017-09-13T04:15:58.357Z,12.02
2017-09-13T04:16:58.047Z,11.95
2017-09-13T04:17:58.042Z,12.09
2017-09-13T04:18:57.730Z,12.07
2017-09-13T04:19:58.048Z,12.13
2017-09-13T04:20:58.339Z,12.13
2017-09-13T04:21:58.337Z,12.17
2017-09-13T04:22:58.331Z,12.21
2017-09-13T04:23:57.718Z,12.18
2017-09-13T04:24:58.026Z,12.22
2017-09-13T04:25:58.328Z,12.25
2017-09-13T04:26:57.712Z,12.25
2017-09-13T04:27:58.320Z,12.22
2017-09-13T04:28:58.014Z,12.15
2017-09-13T04:29:58.319Z,12.27
2017-09-13T04:30:58.356Z,12.25
2017-09-13T04:31:58.308Z,12.39
2017-09-13T04:32:58.006Z,12.39
2017-09-13T04:33:58.011Z,12.37
2017-09-13T04:34:58.308Z,12.35
2017-09-13T04:35:58.332Z,12.35
2017-09-13T04:36:58.304Z,12.27
2017-09-13T04:37:57.990Z,12.32
2017-09-13T04:38:58.304Z,12.35
2017-09-13T04:39:58.301Z,12.24
2017-09-13T04:40:57.981Z,12.25
2017-09-13T04:41:57.979Z,12.42
2017-09-13T04:42:57.974Z,12.35
2017-09-13T04:43:58.288Z,12.39
2017-09-13T04:44:57.983Z,12.35
2017-09-13T04:45:57.970Z,12.35
2017-09-13T04:46:57.659Z,12.35
2017-09-13T04:47:57.661Z,12.36
2017-09-13T04:48:57.962Z,12.36
2017-09-13T04:49:57.968Z,12.36
2017-09-13T04:50:57.961Z,12.36
2017-09-13T04:51:57.960Z,12.31
2017-09-13T04:52:58.259Z,12.35
2017-09-13T04:53:58.263Z,12.29
2017-09-13T04:54:58.270Z,12.15
2017-09-13T04:55:58.258Z,12.15
2017-09-13T04:56:58.250Z,12.17
2017-09-13T04:57:57.939Z,12.18
2017-09-13T04:58:57.935Z,12.15
2017-09-13T04:59:57.632Z,12.21
2017-09-13T05:00:58.238Z,12.24
2017-09-13T05:01:58.242Z,12.24
2017-09-13T05:02:57.929Z,12.18
2017-09-13T05:03:57.618Z,12.35
2017-09-13T05:04:58.237Z,12.29
2017-09-13T05:05:57.920Z,12.31
2017-09-13T05:06:58.246Z,12.31
2017-09-13T05:07:57.913Z,12.27
2017-09-13T05:08:58.221Z,12.36
2017-09-13T05:09:58.219Z,12.35
2017-09-13T05:10:57.911Z,12.36
2017-09-13T05:11:57.905Z,12.36
2017-09-13T05:12:57.912Z,12.45
2017-09-13T05:13:57.904Z,12.46
2017-09-13T05:14:58.206Z,12.46
2017-09-13T05:15:58.201Z,12.54
2017-09-13T05:16:58.997Z,12.62
2017-09-13T05:17:58.264Z,12.58
2017-09-13T05:18:58.199Z,12.68
2017-09-13T05:19:57.896Z,12.65
2017-09-13T05:20:57.893Z,12.7
2017-09-13T05:21:57.897Z,12.76
2017-09-13T05:22:57.906Z,12.78
2017-09-13T05:23:57.880Z,12.82
2017-09-13T05:24:58.188Z,12.93
2017-09-13T05:25:57.882Z,12.97
2017-09-13T05:26:58.239Z,13.01
2017-09-13T05:27:57.873Z,13.13
2017-09-13T05:28:58.184Z,13.15
2017-09-13T05:29:57.874Z,13.28
2017-09-13T05:30:58.224Z,13.31
2017-09-13T05:31:58.673Z,13.38
2017-09-13T05:32:58.184Z,13.49
2017-09-13T05:33:58.180Z,13.52
2017-09-13T05:34:57.889Z,13.53
2017-09-13T05:35:57.887Z,13.67
2017-09-13T05:36:58.171Z,13.74
2017-09-13T05:37:58.173Z,13.83
2017-09-13T05:38:57.868Z,13.85
2017-09-13T05:39:58.168Z,13.93
2017-09-13T05:40:57.857Z,14.05
2017-09-13T05:41:57.884Z,14.1
2017-09-13T05:42:57.858Z,14.22
2017-09-13T05:43:58.155Z,14.23
2017-09-13T05:44:58.164Z,14.29
2017-09-13T05:45:57.858Z,14.28
2017-09-13T05:46:58.150Z,14.33
2017-09-13T05:47:58.149Z,14.32
2017-09-13T05:48:58.178Z,14.4
2017-09-13T05:49:57.548Z,14.5
2017-09-13T05:50:58.154Z,14.63
2017-09-13T05:51:58.149Z,14.69
2017-09-13T05:52:57.831Z,14.66
2017-09-13T05:53:58.144Z,14.72
2017-09-13T05:54:57.844Z,14.78
2017-09-13T05:55:58.171Z,14.97
2017-09-13T05:56:58.140Z,14.92
2017-09-13T05:57:57.834Z,15.04
2017-09-13T05:58:57.834Z,15.02
2017-09-13T05:59:58.165Z,15.03
2017-09-13T06:00:58.140Z,15.09
2017-09-13T06:01:57.540Z,15.1
2017-09-13T06:02:58.134Z,15.21
2017-09-13T06:03:57.823Z,15.24
2017-09-13T06:04:58.142Z,15.31
2017-09-13T06:05:57.520Z,15.31
2017-09-13T06:06:57.832Z,15.25
2017-09-13T06:07:58.132Z,15.35
2017-09-13T06:08:58.140Z,15.36
2017-09-13T06:09:58.136Z,15.36
2017-09-13T06:10:57.520Z,15.47
2017-09-13T06:11:57.823Z,15.49
2017-09-13T06:12:58.128Z,15.4
2017-09-13T06:13:57.822Z,15.59
2017-09-13T06:14:58.137Z,15.54
2017-09-13T06:15:57.516Z,15.68
2017-09-13T06:16:58.130Z,15.65
2017-09-13T06:17:58.325Z,15.67
2017-09-13T06:18:58.130Z,15.77
2017-09-13T06:19:57.826Z,15.68
2017-09-13T06:20:57.505Z,15.73
2017-09-13T06:21:58.128Z,15.82
2017-09-13T06:22:57.516Z,15.86
2017-09-13T06:23:57.816Z,15.91
2017-09-13T06:24:58.127Z,15.92
2017-09-13T06:25:58.121Z,16.04
2017-09-13T06:26:57.840Z,16.08
2017-09-13T06:27:57.504Z,16.04
2017-09-13T06:28:57.825Z,16.17
2017-09-13T06:29:57.824Z,16.23
2017-09-13T06:30:58.128Z,16.2
2017-09-13T06:31:57.840Z,16.24
2017-09-13T06:32:58.115Z,16.32
2017-09-13T06:33:57.506Z,16.16
2017-09-13T06:34:58.133Z,16.26
2017-09-13T06:35:57.819Z,16.31
2017-09-13T06:36:57.504Z,16.33
2017-09-13T06:37:58.119Z,16.32
2017-09-13T06:38:58.120Z,16.29
2017-09-13T06:39:58.138Z,16.29
2017-09-13T06:40:57.824Z,16.35
2017-09-13T06:41:57.827Z,16.36
2017-09-13T06:42:57.813Z,16.38
2017-09-13T06:43:58.120Z,16.43
2017-09-13T06:44:57.827Z,16.38
2017-09-13T06:45:58.135Z,16.36
2017-09-13T06:46:58.121Z,16.42
2017-09-13T06:47:58.864Z,16.5
2017-09-13T06:48:57.815Z,16.46
2017-09-13T06:49:57.522Z,16.43
2017-09-13T06:50:58.129Z,16.54
2017-09-13T06:51:58.127Z,16.58
2017-09-13T06:52:57.817Z,16.54
2017-09-13T06:53:58.127Z,16.6
2017-09-13T06:54:58.131Z,16.64
2017-09-13T06:55:57.506Z,16.58
2017-09-13T06:56:57.818Z,16.57
2017-09-13T06:57:57.818Z,16.6
2017-09-13T06:58:58.129Z,16.56
2017-09-13T06:59:57.523Z,16.57
2017-09-13T07:00:58.126Z,16.54
2017-09-13T07:01:57.819Z,16.6
2017-09-13T07:02:57.824Z,16.66
2017-09-13T07:03:58.129Z,16.64
2017-09-13T07:04:58.137Z,16.75
2017-09-13T07:05:58.128Z,16.74
2017-09-13T07:06:58.130Z,16.83
2017-09-13T07:07:57.836Z,16.75
2017-09-13T07:08:58.124Z,16.84
2017-09-13T07:09:58.135Z,16.75
2017-09-13T07:10:58.135Z,16.83
2017-09-13T07:11:57.826Z,16.86
2017-09-13T07:12:57.822Z,16.86
2017-09-13T07:13:57.517Z,16.78
2017-09-13T07:14:57.844Z,16.76
2017-09-13T07:15:57.827Z,16.93
2017-09-13T07:16:57.830Z,16.81
2017-09-13T07:17:58.936Z,16.83
2017-09-13T07:18:57.825Z,16.78
2017-09-13T07:19:58.136Z,16.74
2017-09-13T07:20:57.828Z,16.78
2017-09-13T07:21:58.138Z,16.86
2017-09-13T07:22:57.521Z,16.84
2017-09-13T07:23:57.833Z,16.81
2017-09-13T07:24:57.532Z,16.93
2017-09-13T07:25:57.827Z,16.87
2017-09-13T07:26:57.525Z,16.9
2017-09-13T07:27:58.139Z,16.9
2017-09-13T07:28:57.527Z,16.93
2017-09-13T07:29:58.152Z,16.94
2017-09-13T07:30:58.141Z,17.04
2017-09-13T07:31:57.835Z,17.05
2017-09-13T07:32:58.143Z,17.06
2017-09-13T07:33:58.142Z,17.11
2017-09-13T07:34:58.153Z,17.15
2017-09-13T07:35:58.143Z,17.19
2017-09-13T07:36:58.148Z,17.15
2017-09-13T07:37:57.838Z,17.06
2017-09-13T07:38:57.836Z,17.06
2017-09-13T07:39:57.855Z,17.06
2017-09-13T07:40:58.148Z,17.04
2017-09-13T07:41:57.843Z,16.91
2017-09-13T07:42:57.844Z,16.97
2017-09-13T07:43:57.848Z,16.97
2017-09-13T07:44:57.854Z,16.93
2017-09-13T07:45:58.152Z,16.87
2017-09-13T07:46:57.536Z,16.81
2017-09-13T07:47:58.156Z,16.76
2017-09-13T07:48:58.409Z,16.83
2017-09-13T07:49:57.870Z,16.86
2017-09-13T07:50:58.157Z,16.89
2017-09-13T07:51:57.865Z,16.9
2017-09-13T07:52:57.860Z,16.94
2017-09-13T07:53:58.157Z,16.93
2017-09-13T07:54:58.163Z,16.93
2017-09-13T07:55:57.863Z,17.01
2017-09-13T07:56:58.157Z,16.94
2017-09-13T07:57:58.169Z,16.94
2017-09-13T07:58:57.880Z,16.94
2017-09-13T07:59:58.170Z,16.93
2017-09-13T08:00:58.160Z,16.97
2017-09-13T08:01:57.893Z,16.97
2017-09-13T08:02:57.550Z,17.06
2017-09-13T08:03:58.168Z,17.09
2017-09-13T08:04:58.168Z,17.14
2017-09-13T08:05:57.866Z,17.11
2017-09-13T08:06:58.192Z,17.15
2017-09-13T08:07:58.170Z,17.15
2017-09-13T08:08:58.169Z,17.15
2017-09-13T08:09:58.183Z,17.23
2017-09-13T08:10:58.176Z,17.33
2017-09-13T08:11:58.174Z,17.34
2017-09-13T08:12:57.874Z,17.41
2017-09-13T08:13:57.871Z,17.52
2017-09-13T08:14:58.192Z,17.48
2017-09-13T08:15:58.176Z,17.46
2017-09-13T08:16:57.872Z,17.54
2017-09-13T08:17:58.180Z,17.52
2017-09-13T08:18:58.980Z,17.63
2017-09-13T08:19:58.187Z,17.46
2017-09-13T08:20:57.878Z,17.48
2017-09-13T08:21:58.216Z,17.51
2017-09-13T08:22:58.182Z,17.56
2017-09-13T08:23:58.191Z,17.51
2017-09-13T08:24:57.888Z,17.57
2017-09-13T08:25:58.189Z,17.6
2017-09-13T08:26:58.228Z,17.59
2017-09-13T08:27:58.192Z,17.6
2017-09-13T08:28:57.574Z,17.63
2017-09-13T08:29:57.896Z,17.6
2017-09-13T08:30:58.190Z,17.72
2017-09-13T08:31:58.194Z,17.82
2017-09-13T08:32:58.197Z,17.83
2017-09-13T08:33:58.194Z,17.78
2017-09-13T08:34:58.208Z,17.92
2017-09-13T08:35:58.200Z,17.95
2017-09-13T08:36:57.895Z,17.94
2017-09-13T08:37:58.204Z,17.89
2017-09-13T08:38:58.203Z,17.97
2017-09-13T08:39:57.904Z,17.92
2017-09-13T08:40:58.209Z,18.04
2017-09-13T08:41:57.898Z,18.07
2017-09-13T08:42:58.217Z,18.03
2017-09-13T08:43:58.209Z,18.07
2017-09-13T08:44:58.220Z,18.19
2017-09-13T08:45:58.209Z,18.19
2017-09-13T08:46:57.907Z,18.2
2017-09-13T08:47:58.219Z,18.23
2017-09-13T08:48:58.472Z,18.33
2017-09-13T08:49:57.917Z,18.37
2017-09-13T08:50:57.601Z,18.4
2017-09-13T08:51:57.914Z,18.37
2017-09-13T08:52:58.226Z,18.45
2017-09-13T08:53:58.231Z,18.43
2017-09-13T08:54:58.284Z,18.52
2017-09-13T08:55:58.288Z,18.6
2017-09-13T08:56:58.228Z,18.62
2017-09-13T08:57:58.232Z,18.59
2017-09-13T08:58:57.935Z,18.53
2017-09-13T08:59:58.243Z,18.53
2017-09-13T09:00:57.935Z,18.59
2017-09-13T09:01:58.244Z,18.73
2017-09-13T09:02:58.242Z,18.73
2017-09-13T09:03:58.280Z,18.71
2017-09-13T09:04:57.952Z,18.68
2017-09-13T09:05:58.251Z,18.75
2017-09-13T09:06:58.297Z,18.71
2017-09-13T09:07:57.957Z,18.74
2017-09-13T09:08:58.268Z,18.81
2017-09-13T09:09:58.263Z,18.89
2017-09-13T09:10:58.265Z,18.95
2017-09-13T09:11:57.951Z,19.04
2017-09-13T09:12:57.978Z,19.18
2017-09-13T09:13:57.981Z,19.12
2017-09-13T09:14:58.270Z,19.24
2017-09-13T09:15:57.980Z,19.34
2017-09-13T09:16:58.292Z,19.22
2017-09-13T09:17:58.277Z,19.16
2017-09-13T09:18:58.235Z,19.29
2017-09-13T09:19:57.984Z,19.12
2017-09-13T09:20:58.292Z,19.09
2017-09-13T09:21:58.002Z,19.02
2017-09-13T09:22:58.312Z,19.04
2017-09-13T09:23:57.668Z,19.11
2017-09-13T09:24:57.990Z,19.07
2017-09-13T09:25:58.292Z,19.11
2017-09-13T09:26:57.993Z,19.18
2017-09-13T09:27:57.687Z,19.21
2017-09-13T09:28:58.036Z,19.34
2017-09-13T09:29:57.759Z,19.36
2017-09-13T09:30:58.315Z,19.54
2017-09-13T09:31:58.011Z,19.54
2017-09-13T09:32:58.009Z,19.54
2017-09-13T09:33:58.002Z,19.47
2017-09-13T09:34:58.017Z,19.49
2017-09-13T09:35:58.000Z,19.52
2017-09-13T09:36:58.309Z,19.52
2017-09-13T09:37:58.010Z,19.48
2017-09-13T09:38:57.718Z,19.63
2017-09-13T09:39:58.025Z,19.66
2017-09-13T09:40:58.011Z,19.71
2017-09-13T09:41:58.328Z,19.79
2017-09-13T09:42:58.013Z,19.79
2017-09-13T09:43:58.327Z,19.95
2017-09-13T09:44:58.029Z,19.95
2017-09-13T09:45:58.020Z,20.03
2017-09-13T09:46:58.024Z,19.99
2017-09-13T09:47:57.726Z,20.03
2017-09-13T09:48:58.588Z,20.03
2017-09-13T09:49:58.038Z,19.96
2017-09-13T09:50:57.731Z,20.06
2017-09-13T09:51:58.040Z,20.09
2017-09-13T09:52:58.038Z,20.18
2017-09-13T09:53:58.352Z,20.21
2017-09-13T09:54:58.081Z,20.25
2017-09-13T09:55:57.745Z,20.21
2017-09-13T09:56:58.360Z,20.24
2017-09-13T09:57:58.370Z,20.39
2017-09-13T09:58:57.760Z,20.34
2017-09-13T09:59:58.373Z,20.43
2017-09-13T10:00:58.379Z,20.43
2017-09-13T10:01:58.374Z,20.51
2017-09-13T10:02:58.378Z,20.56
2017-09-13T10:03:58.429Z,20.52
2017-09-13T10:04:58.399Z,20.52
2017-09-13T10:05:58.423Z,20.66
2017-09-13T10:06:58.083Z,20.7
2017-09-13T10:07:58.086Z,20.67
2017-09-13T10:08:58.116Z,20.65
2017-09-13T10:09:58.190Z,20.87
2017-09-13T10:10:58.101Z,20.99
2017-09-13T10:11:58.408Z,21.2
2017-09-13T10:12:58.099Z,21.27
2017-09-13T10:13:58.100Z,21.42
2017-09-13T10:14:58.116Z,21.57
2017-09-13T10:15:58.112Z,21.61
2017-09-13T10:16:58.117Z,21.77
2017-09-13T10:17:58.116Z,21.91
2017-09-13T10:18:58.121Z,21.98
2017-09-13T10:19:59.072Z,22
2017-09-13T10:20:58.431Z,22.08
2017-09-13T10:21:58.446Z,22.11
2017-09-13T10:22:58.450Z,21.96
2017-09-13T10:23:58.456Z,22
2017-09-13T10:24:58.180Z,22.06
2017-09-13T10:25:58.158Z,21.93
2017-09-13T10:26:57.849Z,22.07
2017-09-13T10:27:58.475Z,22.26
2017-09-13T10:28:58.469Z,22.29
2017-09-13T10:29:58.479Z,22.32
2017-09-13T10:30:58.181Z,22.41
2017-09-13T10:31:58.194Z,22.44
2017-09-13T10:32:58.494Z,22.26
2017-09-13T10:33:58.506Z,22.28
2017-09-13T10:34:58.205Z,22.28
2017-09-13T10:35:58.514Z,22.25
2017-09-13T10:36:58.497Z,22.17
2017-09-13T10:37:57.900Z,22.29
2017-09-13T10:38:57.919Z,22.28
2017-09-13T10:39:58.240Z,22.26
2017-09-13T10:40:58.521Z,22.25
2017-09-13T10:41:57.907Z,22.36
2017-09-13T10:42:58.219Z,22.44
2017-09-13T10:43:58.222Z,22.47
2017-09-13T10:44:58.548Z,22.45
2017-09-13T10:45:58.583Z,22.57
2017-09-13T10:46:58.555Z,22.57
2017-09-13T10:47:58.549Z,22.54
2017-09-13T10:48:58.548Z,22.54
2017-09-13T10:49:58.863Z,22.7
2017-09-13T10:50:58.254Z,22.75
2017-09-13T10:51:58.253Z,22.8
2017-09-13T10:52:58.574Z,22.81
2017-09-13T10:53:58.262Z,22.73
2017-09-13T10:54:58.272Z,22.76
2017-09-13T10:55:58.281Z,22.66
2017-09-13T10:56:58.593Z,22.65
2017-09-13T10:57:58.295Z,22.59
2017-09-13T10:58:57.977Z,22.51
2017-09-13T10:59:58.600Z,22.54
2017-09-13T11:00:58.617Z,22.44
2017-09-13T11:01:58.613Z,22.29
2017-09-13T11:02:58.613Z,22.38
2017-09-13T11:03:58.304Z,22.3
2017-09-13T11:04:58.315Z,22.26
2017-09-13T11:05:58.627Z,22.25
2017-09-13T11:06:58.637Z,22.28
2017-09-13T11:07:58.636Z,22.26
2017-09-13T11:08:58.328Z,22.26
2017-09-13T11:09:58.643Z,22.3
2017-09-13T11:10:58.644Z,22.26
2017-09-13T11:11:58.341Z,22.13
2017-09-13T11:12:58.347Z,22.17
2017-09-13T11:13:58.345Z,22.2
2017-09-13T11:14:58.669Z,22.25
2017-09-13T11:15:58.668Z,22.23
2017-09-13T11:16:58.055Z,22.32
2017-09-13T11:17:58.373Z,22.22
2017-09-13T11:18:58.681Z,22.2
2017-09-13T11:19:59.637Z,22.08
2017-09-13T11:20:58.698Z,22.11
2017-09-13T11:21:58.067Z,22.2
2017-09-13T11:22:58.712Z,22.23
2017-09-13T11:23:58.705Z,22.28
2017-09-13T11:24:58.707Z,22.28
2017-09-13T11:25:58.091Z,22.22
2017-09-13T11:26:58.705Z,22.29
2017-09-13T11:27:58.100Z,22.3
2017-09-13T11:28:58.420Z,22.45
2017-09-13T11:29:58.726Z,22.43
2017-09-13T11:30:58.735Z,22.32
2017-09-13T11:31:58.754Z,22.3
2017-09-13T11:32:58.747Z,22.29
2017-09-13T11:33:58.438Z,22.33
2017-09-13T11:34:58.451Z,22.38
2017-09-13T11:35:58.752Z,22.35
2017-09-13T11:36:58.751Z,22.33
2017-09-13T11:37:58.449Z,22.3
2017-09-13T11:38:58.754Z,22.36
2017-09-13T11:39:58.456Z,22.36
2017-09-13T11:40:58.767Z,22.29
2017-09-13T11:41:58.771Z,22.29
2017-09-13T11:42:58.774Z,22.32
2017-09-13T11:43:58.470Z,22.43
2017-09-13T11:44:58.787Z,22.33
2017-09-13T11:45:58.787Z,22.13
2017-09-13T11:46:58.788Z,22.26
2017-09-13T11:47:58.803Z,22.18
2017-09-13T11:48:58.846Z,22.26
2017-09-13T11:49:58.810Z,22.23
2017-09-13T11:50:58.807Z,22.33
2017-09-13T11:51:58.810Z,22.44
2017-09-13T11:52:58.818Z,22.43
2017-09-13T11:53:58.813Z,22.55
2017-09-13T11:54:58.215Z,22.6
2017-09-13T11:55:58.830Z,22.68
2017-09-13T11:56:58.836Z,22.65
2017-09-13T11:57:58.538Z,22.7
2017-09-13T11:58:58.246Z,22.54
2017-09-13T11:59:58.532Z,22.65
2017-09-13T12:00:58.235Z,22.68
2017-09-13T12:01:58.542Z,22.76
2017-09-13T12:02:58.547Z,22.69
2017-09-13T12:03:58.862Z,22.59
2017-09-13T12:04:58.859Z,22.45
2017-09-13T12:05:58.553Z,22.32
2017-09-13T12:06:58.558Z,22.33
2017-09-13T12:07:58.579Z,22.29
2017-09-13T12:08:58.877Z,22.22
2017-09-13T12:09:58.589Z,22.07
2017-09-13T12:10:58.918Z,22.04
2017-09-13T12:11:58.579Z,22.14
2017-09-13T12:12:58.905Z,22.1
2017-09-13T12:13:58.603Z,22.1
2017-09-13T12:14:58.294Z,22.08
2017-09-13T12:15:58.601Z,22
2017-09-13T12:16:58.602Z,21.96
2017-09-13T12:17:58.910Z,21.89
2017-09-13T12:18:58.912Z,21.88
2017-09-13T12:19:58.918Z,21.73
2017-09-13T12:20:58.920Z,21.62
2017-09-13T12:21:58.613Z,21.61
2017-09-13T12:22:58.618Z,21.51
2017-09-13T12:23:58.620Z,21.45
2017-09-13T12:24:58.940Z,21.42
2017-09-13T12:25:58.634Z,21.43
2017-09-13T12:26:58.935Z,21.2
2017-09-13T12:27:58.330Z,21.11
2017-09-13T12:28:58.638Z,21.03
2017-09-13T12:29:58.643Z,21
2017-09-13T12:30:58.685Z,20.92
2017-09-13T12:31:58.955Z,20.92
2017-09-13T12:32:58.651Z,20.95
2017-09-13T12:33:58.648Z,20.82
2017-09-13T12:34:58.982Z,20.81
2017-09-13T12:35:58.664Z,20.75
2017-09-13T12:36:58.751Z,20.78
2017-09-13T12:37:58.672Z,20.67
2017-09-13T12:38:58.974Z,20.69
2017-09-13T12:39:58.987Z,20.6
2017-09-13T12:40:58.689Z,20.6
2017-09-13T12:41:58.984Z,20.66
2017-09-13T12:42:58.985Z,20.56
2017-09-13T12:43:58.994Z,20.58
2017-09-13T12:44:59.000Z,20.58
2017-09-13T12:45:58.378Z,20.56
2017-09-13T12:46:58.693Z,20.56
2017-09-13T12:47:59.002Z,20.55
2017-09-13T12:48:58.694Z,20.51
2017-09-13T12:49:58.699Z,20.51
2017-09-13T12:50:59.155Z,20.62
2017-09-13T12:51:59.014Z,20.65
2017-09-13T12:52:58.721Z,20.6
2017-09-13T12:53:58.718Z,20.66
2017-09-13T12:54:58.718Z,20.78
2017-09-13T12:55:58.719Z,20.8
2017-09-13T12:56:58.725Z,20.85